createdAt,value
2019-03-24T00:04:57.845Z,16.93
2019-03-24T00:10:04.042Z,17.87
2019-03-24T00:15:10.485Z,18.30
2019-03-24T00:20:16.576Z,18.37
2019-03-24T00:25:22.408Z,18.07
2019-03-24T00:30:28.179Z,20.37
2019-03-24T00:35:34.042Z,20.47
2019-03-24T00:40:39.884Z,19.33
2019-03-24T00:45:46.974Z,21.20
2019-03-24T00:50:52.816Z,21.87
2019-03-24T00:55:58.667Z,22.13
2019-03-24T01:01:04.727Z,26.50
2019-03-24T01:06:10.663Z,27.30
2019-03-24T01:11:16.578Z,25.17
2019-03-24T01:16:22.425Z,28.60
2019-03-24T01:21:28.263Z,28.83
2019-03-24T01:26:34.106Z,29.83
2019-03-24T01:31:39.979Z,32.73
2019-03-24T01:36:45.838Z,34.17
2019-03-24T01:41:51.702Z,33.90
2019-03-24T01:46:57.702Z,33.33
2019-03-24T01:52:03.537Z,32.97
2019-03-24T01:57:09.476Z,33.83
2019-03-24T02:02:15.311Z,35.77
2019-03-24T02:07:21.147Z,34.97
2019-03-24T02:12:26.983Z,33.27
2019-03-24T02:17:32.848Z,34.63
2019-03-24T02:22:38.683Z,33.87
2019-03-24T02:27:44.531Z,35.73
2019-03-24T02:32:50.400Z,35.27
2019-03-24T02:37:56.251Z,35.80
2019-03-24T02:43:02.163Z,38.20
2019-03-24T02:48:08.045Z,37.37
2019-03-24T02:53:13.858Z,34.30
2019-03-24T02:58:19.751Z,38.87
2019-03-24T03:03:25.562Z,36.43
2019-03-24T03:08:31.431Z,38.00
2019-03-24T03:13:37.285Z,38.53
2019-03-24T03:18:43.126Z,39.97
2019-03-24T03:23:48.992Z,38.47
2019-03-24T03:28:54.842Z,39.57
2019-03-24T03:34:00.724Z,39.17
2019-03-24T03:39:08.387Z,35.97
2019-03-24T03:44:14.228Z,39.30
2019-03-24T03:49:20.100Z,37.97
2019-03-24T03:54:25.973Z,42.30
2019-03-24T03:59:31.893Z,38.60
2019-03-24T04:04:37.726Z,41.03
2019-03-24T04:09:43.586Z,40.53
2019-03-24T04:14:49.417Z,41.47
2019-03-24T04:19:56.346Z,42.07
2019-03-24T04:25:02.194Z,39.57
2019-03-24T04:30:08.482Z,41.80
2019-03-24T04:35:14.360Z,35.00
2019-03-24T04:40:20.210Z,39.03
2019-03-24T04:45:26.055Z,38.10
2019-03-24T04:50:31.939Z,41.07
2019-03-24T04:55:37.795Z,38.97
2019-03-24T05:00:43.639Z,42.67
2019-03-24T05:05:49.664Z,41.47
2019-03-24T05:10:55.487Z,39.67
2019-03-24T05:16:01.334Z,43.10
2019-03-24T05:21:07.171Z,40.67
2019-03-24T05:26:13.012Z,43.53
2019-03-24T05:31:18.891Z,41.27
2019-03-24T05:36:24.763Z,44.30
2019-03-24T05:41:30.609Z,42.57
2019-03-24T05:46:36.464Z,42.53
2019-03-24T05:51:42.305Z,42.70
2019-03-24T05:56:48.171Z,41.30
2019-03-24T06:01:54.031Z,39.40
2019-03-24T06:06:59.867Z,37.83
2019-03-24T06:12:05.633Z,39.03
2019-03-24T06:17:12.583Z,38.40
2019-03-24T06:22:18.434Z,36.97
2019-03-24T06:27:24.263Z,39.10
2019-03-24T06:32:30.131Z,37.83
2019-03-24T06:37:35.970Z,36.43
2019-03-24T06:42:41.823Z,38.83
2019-03-24T06:47:57.396Z,36.07
2019-03-24T06:52:55.143Z,35.43
2019-03-24T06:58:00.999Z,38.07
2019-03-24T07:03:06.949Z,37.63
2019-03-24T07:08:12.797Z,35.70
2019-03-24T07:13:18.649Z,36.93
2019-03-24T07:18:24.498Z,35.60
2019-03-24T07:23:30.458Z,34.33
2019-03-24T07:28:36.255Z,36.20
2019-03-24T07:33:42.119Z,34.10
2019-03-24T07:38:47.976Z,35.00
2019-03-24T07:43:53.820Z,31.80
2019-03-24T07:48:59.662Z,36.03
2019-03-24T07:54:05.869Z,33.30
2019-03-24T07:59:11.723Z,36.40
2019-03-24T08:04:17.591Z,34.67
2019-03-24T08:09:23.451Z,32.90
2019-03-24T08:14:29.399Z,33.90
2019-03-24T08:19:35.263Z,33.63
2019-03-24T08:24:41.234Z,34.50
2019-03-24T08:29:47.283Z,33.53
2019-03-24T08:34:53.164Z,37.13
2019-03-24T08:39:59.054Z,34.63
2019-03-24T08:45:05.175Z,35.23
2019-03-24T08:50:11.133Z,34.97
2019-03-24T08:55:17.006Z,36.33
2019-03-24T09:00:30.487Z,37.23
2019-03-24T09:05:30.343Z,35.87
2019-03-24T09:10:36.203Z,36.37
2019-03-24T09:15:43.198Z,36.07
2019-03-24T09:20:49.218Z,33.90
2019-03-24T09:25:55.072Z,35.03
2019-03-24T09:31:01.812Z,34.37
2019-03-24T09:36:07.687Z,34.23
2019-03-24T09:41:13.543Z,33.13
2019-03-24T09:46:23.560Z,32.57
2019-03-24T09:51:31.216Z,32.93
2019-03-24T09:56:37.213Z,31.10
2019-03-24T10:01:43.656Z,31.07
2019-03-24T10:06:49.576Z,30.07
2019-03-24T10:11:56.776Z,30.43
2019-03-24T10:17:05.958Z,34.07
2019-03-24T10:22:12.595Z,31.65
2019-03-24T10:27:18.522Z,31.00
2019-03-24T10:32:24.669Z,32.23
2019-03-24T10:37:32.378Z,31.23
2019-03-24T10:42:41.787Z,32.83
2019-03-24T10:47:49.658Z,34.43
2019-03-24T10:52:55.861Z,34.78
2019-03-24T10:58:03.492Z,35.30
2019-03-24T11:03:11.046Z,31.93
2019-03-24T11:08:18.421Z,34.38
2019-03-24T11:13:24.546Z,32.83
2019-03-24T11:18:30.570Z,31.70
2019-03-24T11:23:37.719Z,32.78
2019-03-24T11:28:44.475Z,30.95
2019-03-24T11:33:51.039Z,30.95
2019-03-24T11:38:59.098Z,33.00
2019-03-24T11:44:06.905Z,32.20
2019-03-24T11:49:22.322Z,29.45
2019-03-24T11:54:29.200Z,32.50
2019-03-24T11:59:35.102Z,31.12
2019-03-24T12:04:40.996Z,30.30
2019-03-24T12:09:50.027Z,30.52
2019-03-24T12:15:00.356Z,29.92
2019-03-24T12:20:08.299Z,29.37
2019-03-24T12:25:14.151Z,29.35
2019-03-24T12:30:20.041Z,28.87
2019-03-24T12:35:25.936Z,31.50
2019-03-24T12:40:31.796Z,30.05
2019-03-24T12:45:37.660Z,29.02
2019-03-24T12:50:43.659Z,28.80
2019-03-24T12:55:49.532Z,28.95
2019-03-24T13:00:55.395Z,27.35
2019-03-24T13:06:01.388Z,27.25
2019-03-24T13:11:07.379Z,23.98
2019-03-24T13:16:15.162Z,28.50
2019-03-24T13:21:21.722Z,28.30
2019-03-24T13:26:27.910Z,30.35
2019-03-24T13:31:34.163Z,26.48
2019-03-24T13:36:41.384Z,28.27
2019-03-24T13:41:48.758Z,30.60
2019-03-24T13:46:57.351Z,27.73
2019-03-24T13:52:03.542Z,29.02
2019-03-24T13:57:09.412Z,26.40
2019-03-24T14:02:17.050Z,24.50
2019-03-24T14:07:24.438Z,24.85
2019-03-24T14:12:31.431Z,23.90
2019-03-24T14:17:37.236Z,28.32
2019-03-24T14:22:43.175Z,28.47
2019-03-24T14:27:51.320Z,23.12
2019-03-24T14:32:58.277Z,21.65
2019-03-24T14:38:04.400Z,21.45
2019-03-24T14:43:11.348Z,21.05
2019-03-24T14:48:18.206Z,20.35
2019-03-24T14:53:25.817Z,20.68
2019-03-24T14:58:32.269Z,18.50
2019-03-24T15:03:38.207Z,20.30
2019-03-24T15:08:44.170Z,22.77
2019-03-24T15:13:52.471Z,21.00
2019-03-24T15:18:58.427Z,21.03
2019-03-24T15:24:04.276Z,20.43
2019-03-24T15:29:10.219Z,22.40
2019-03-24T15:34:17.352Z,21.13
2019-03-24T15:39:23.207Z,21.67
2019-03-24T15:44:29.082Z,19.67
2019-03-24T15:49:34.970Z,22.10
2019-03-24T15:54:40.984Z,20.30
2019-03-24T15:59:47.674Z,21.70
2019-03-24T16:04:53.781Z,22.30
2019-03-24T16:09:59.828Z,23.77
2019-03-24T16:15:06.879Z,22.07
2019-03-24T16:20:12.947Z,22.87
2019-03-24T16:25:19.080Z,21.83
2019-03-24T16:30:25.695Z,21.50
2019-03-24T16:35:35.912Z,25.13
2019-03-24T16:40:42.041Z,25.87
2019-03-24T16:45:48.093Z,25.53
2019-03-24T16:50:53.998Z,24.00
2019-03-24T16:56:00.112Z,26.47
2019-03-24T17:01:06.096Z,25.53
2019-03-24T17:06:12.011Z,27.60
2019-03-24T17:11:17.875Z,24.83
2019-03-24T17:16:23.831Z,25.07
2019-03-24T17:21:29.720Z,26.70
2019-03-24T17:26:35.704Z,28.20
2019-03-24T17:31:41.875Z,27.37
2019-03-24T17:36:47.886Z,27.73
2019-03-24T17:41:53.764Z,29.10
2019-03-24T17:46:59.631Z,29.50
2019-03-24T17:52:05.634Z,29.27
2019-03-24T17:57:11.557Z,32.30
2019-03-24T18:02:17.752Z,33.50
2019-03-24T18:07:23.865Z,33.83
2019-03-24T18:12:29.871Z,32.07
2019-03-24T18:17:35.776Z,32.93
2019-03-24T18:22:41.730Z,32.70
2019-03-24T18:27:47.786Z,34.47
2019-03-24T18:32:53.852Z,34.17
2019-03-24T18:37:59.707Z,34.30
2019-03-24T18:43:05.922Z,35.67
2019-03-24T18:48:12.277Z,37.63
2019-03-24T18:53:18.295Z,33.60
2019-03-24T18:58:24.178Z,37.10
2019-03-24T19:03:30.059Z,36.20
2019-03-24T19:08:36.877Z,35.10
2019-03-24T19:13:42.822Z,33.53
2019-03-24T19:18:48.672Z,31.77
2019-03-24T19:23:55.957Z,33.70
2019-03-24T19:29:01.856Z,32.37
2019-03-24T19:34:07.811Z,33.43
2019-03-24T19:39:13.679Z,34.10
2019-03-24T19:44:19.720Z,32.63
2019-03-24T19:49:25.576Z,32.30
2019-03-24T19:54:31.432Z,32.80
2019-03-24T19:59:37.504Z,35.13
2019-03-24T20:04:43.503Z,35.57
2019-03-24T20:09:49.410Z,34.07
2019-03-24T20:14:55.393Z,33.13
2019-03-24T20:20:01.480Z,32.70
2019-03-24T20:25:07.801Z,33.70
2019-03-24T20:30:13.951Z,33.37
2019-03-24T20:35:19.839Z,33.53
2019-03-24T20:40:25.886Z,34.67
2019-03-24T20:45:31.746Z,35.20
2019-03-24T20:50:37.711Z,34.23
2019-03-24T20:55:43.587Z,32.30
2019-03-24T21:00:49.616Z,34.77
2019-03-24T21:05:55.747Z,34.77
2019-03-24T21:11:01.687Z,34.63
2019-03-24T21:16:07.543Z,33.00
2019-03-24T21:21:13.472Z,31.40
2019-03-24T21:26:19.420Z,32.23
2019-03-24T21:31:28.587Z,32.17
2019-03-24T21:36:34.615Z,31.60
2019-03-24T21:41:41.260Z,31.63
2019-03-24T21:46:47.955Z,32.03
2019-03-24T21:51:54.510Z,31.03
2019-03-24T21:57:01.078Z,29.97
2019-03-24T22:02:07.155Z,31.33
2019-03-24T22:07:13.623Z,30.60
2019-03-24T22:12:20.059Z,29.80
2019-03-24T22:17:26.782Z,32.00
2019-03-24T22:22:33.297Z,32.47
2019-03-24T22:27:39.428Z,31.10
2019-03-24T22:32:45.321Z,33.40
2019-03-24T22:37:51.301Z,30.87
2019-03-24T22:42:57.151Z,31.23
2019-03-24T22:48:03.126Z,28.87
2019-03-24T22:53:09.075Z,32.07
2019-03-24T22:58:14.991Z,28.60
2019-03-24T23:03:21.175Z,30.70
2019-03-24T23:08:27.062Z,30.53
2019-03-24T23:13:32.899Z,30.53
2019-03-24T23:18:38.742Z,28.57
2019-03-24T23:23:46.418Z,32.40
2019-03-24T23:28:53.399Z,33.70
2019-03-24T23:33:59.513Z,31.53
2019-03-24T23:39:07.726Z,32.37
2019-03-24T23:44:13.747Z,29.70
2019-03-24T23:49:19.795Z,27.63
2019-03-24T23:54:27.352Z,29.30
2019-03-24T23:59:34.799Z,30.03
